Seroja Enam — 3FFV6 — position and weather

sailwx.info

Track history (hours):
 
Tides and Currents Weather Stations Pressure Air Temp Water Temp Dewpoint Dewpoint Depression Visibility Wind Speed Wind Dir Waves Ship Positions

Seroja Enam

Last reported at 2017-Dec-04 08:20 UTC. Time now 2017-Dec-17 06:27 UTC.
Position N 30°44' E 032°20'.
Warning: this ship's position is 12 days out of date.

Length 316 m; draft 14.3 m.

Type: Cargo ship. MMSI: 351109000.

Date/timePositionNaut miles runAvg speedWind from/ knotsBaromVisibWave heightAir tempDewpointWater temp
2017-Dec-04 08:20N 30°44' E 032°20'310.0
2017-Dec-04 08:00N 30°47' E 032°19'4 8.7
2017-Dec-04 07:30N 30°52' E 032°19'8 8.6
2017-Dec-04 06:37N 30°59' E 032°19'3 9.3
2017-Dec-04 06:17N 31°02' E 032°19'2 9.1
2017-Dec-04 06:00N 31°05' E 032°19'8 0.6
2017-Dec-03 17:39N 31°12' E 032°21'0 0.0
2017-Dec-03 15:42N 31°12' E 032°21'0 0.0
2017-Dec-03 15:09N 31°12' E 032°21'0 0.0
2017-Dec-03 14:54N 31°12' E 032°21'0 0.0
2017-Dec-03 11:24N 31°12' E 032°21'0 0.0
2017-Dec-03 10:57N 31°12' E 032°21'0 0.0
2017-Dec-03 10:27N 31°12' E 032°21'0 0.0
2017-Dec-03 10:00N 31°12' E 032°21'0 0.0
2017-Dec-03 09:30N 31°12' E 032°21'0 0.1
2017-Dec-03 09:00N 31°12' E 032°21'2 4.2
2017-Dec-03 08:30N 31°14' E 032°22'5 9.4
2017-Dec-03 08:00N 31°19' E 032°23'3 6.9
2017-Dec-03 07:30N 31°22' E 032°24'4 8.8
2017-Dec-03 07:00N 31°26' E 032°25'4 3.3
2017-Dec-03 05:55N 31°30' E 032°23'0 0.5
2017-Dec-03 05:16N 31°30' E 032°23'0 0.4
2017-Dec-03 05:00N 31°29' E 032°23'7 6.5
2017-Dec-03 03:59N 31°31' E 032°15'8319.8
2017-Dec-02 23:49N 32°10' E 030°50'721.2
2017-Dec-02 23:30N 32°13' E 030°43'1121.1
2017-Dec-02 23:00N 32°17' E 030°31'1121.1
2017-Dec-02 22:28N 32°21' E 030°19'1020.8
2017-Dec-02 22:00N 32°24' E 030°08'1020.9
2017-Dec-02 21:30N 32°28' E 029°57'10020.7
2017-Dec-02 16:41N 33°05' E 028°07'13121.1
2017-Dec-02 10:29N 33°53' E 025°40'1020.5
2017-Dec-02 09:59N 33°57' E 025°29'1620.2
2017-Dec-02 09:10N 34°03' E 025°11'920.1
2017-Dec-02 08:43N 34°07' E 025°01'420.3
2017-Dec-02 08:30N 34°08' E 024°56'10320.2
2017-Dec-02 03:23N 34°51' E 023°02'819.9
2017-Dec-02 03:00N 34°54' E 022°53'35120.0
2017-Dec-01 09:28N 37°34' E 016°26'1020.3
2017-Dec-01 08:58N 37°38' E 016°14'920.0
2017-Dec-01 08:30N 37°43' E 016°04'1020.0
2017-Dec-01 08:00N 37°47' E 015°53'1020.0
2017-Dec-01 07:30N 37°52' E 015°41'1217.6
2017-Dec-01 06:47N 38°03' E 015°35'516.1
2017-Dec-01 06:29N 38°08' E 015°35'613.4
2017-Dec-01 06:01N 38°14' E 015°36'611.0
2017-Dec-01 05:30N 38°19' E 015°41'3 5.3
2017-Dec-01 05:00N 38°21' E 015°39'3115.6
2017-Dec-01 03:03N 38°48' E 015°21'421.3
2017-Dec-01 02:53N 38°51' E 015°18'3221.3
2017-Dec-01 01:22N 39°13' E 014°48'821.7
2017-Dec-01 01:00N 39°18' E 014°40'35021.0
2017-Nov-30 08:19N 43°30' E 009°17'721.4
2017-Nov-30 08:00N 43°36' E 009°12'1021.0
2017-Nov-30 07:31N 43°45' E 009°06'1020.5
2017-Nov-30 07:01N 43°54' E 008°60'1020.4
2017-Nov-30 06:30N 44°03' E 008°53'1020.5
2017-Nov-30 06:00N 44°12' E 008°47'918.7
2017-Nov-30 05:30N 44°21' E 008°42'510.2
2017-Nov-30 05:01N 44°25' E 008°46'1 1.4
2017-Nov-30 04:28N 44°25' E 008°47'0 0.0
2017-Nov-30 03:58N 44°25' E 008°47'0 0.0
2017-Nov-30 03:28N 44°25' E 008°47'0 0.0
2017-Nov-30 02:58N 44°25' E 008°47'0 0.0
2017-Nov-30 02:28N 44°25' E 008°47'0 0.0
2017-Nov-30 01:58N 44°25' E 008°47'0 0.0
2017-Nov-30 01:28N 44°25' E 008°47'0 0.0
2017-Nov-30 00:58N 44°25' E 008°47'0 0.0
2017-Nov-30 00:28N 44°25' E 008°47'0 0.0
2017-Nov-29 23:58N 44°25' E 008°47'0 0.0
2017-Nov-29 23:28N 44°25' E 008°47'0 0.0
2017-Nov-29 22:58N 44°25' E 008°47'0 0.0
2017-Nov-29 22:28N 44°25' E 008°47'0 0.0
2017-Nov-29 21:58N 44°25' E 008°47'0 0.0
2017-Nov-29 21:28N 44°25' E 008°47'0 0.0
2017-Nov-29 20:58N 44°25' E 008°47'0 0.0
2017-Nov-29 20:28N 44°25' E 008°47'0 0.0
2017-Nov-29 19:55N 44°25' E 008°47'0 0.0
2017-Nov-29 19:28N 44°25' E 008°47'0 0.0
2017-Nov-29 18:55N 44°25' E 008°47'0 0.0
2017-Nov-29 18:25N 44°25' E 008°47'0 0.0
2017-Nov-29 17:58N 44°25' E 008°47'0 0.0
2017-Nov-29 17:28N 44°25' E 008°47'0 0.0
2017-Nov-29 16:58N 44°25' E 008°47'0 0.0
2017-Nov-29 16:28N 44°25' E 008°47'0 0.0
2017-Nov-29 15:58N 44°25' E 008°47'0 0.0
2017-Nov-29 15:28N 44°25' E 008°47'0 0.0
2017-Nov-29 14:58N 44°25' E 008°47'0 0.0
2017-Nov-29 14:28N 44°25' E 008°47'0 0.0
2017-Nov-29 13:58N 44°25' E 008°47'0 0.0
2017-Nov-29 13:28N 44°25' E 008°47'0 0.0
2017-Nov-29 12:58N 44°25' E 008°47'0 0.0
2017-Nov-29 12:28N 44°25' E 008°47'0 0.0
2017-Nov-29 11:58N 44°25' E 008°47'0 0.0
2017-Nov-29 11:28N 44°25' E 008°47'0 0.0
2017-Nov-29 10:58N 44°25' E 008°47'0 0.0
2017-Nov-29 10:28N 44°25' E 008°47'0 0.0
2017-Nov-29 09:58N 44°25' E 008°47'0 0.0
2017-Nov-29 09:28N 44°25' E 008°47'0 0.0
2017-Nov-29 08:58N 44°25' E 008°47'0 0.0
2017-Nov-29 08:28N 44°25' E 008°47'0 0.0
2017-Nov-29 07:58N 44°25' E 008°47'0 0.0
2017-Nov-29 07:28N 44°25' E 008°47'0 0.0
2017-Nov-29 06:58N 44°25' E 008°47'0 0.0
2017-Nov-29 06:28N 44°25' E 008°47'0 0.0
2017-Nov-29 05:58N 44°25' E 008°47'0 0.0
2017-Nov-29 05:28N 44°25' E 008°47'0 0.1
2017-Nov-29 05:00N 44°25' E 008°47'0 0.9
2017-Nov-29 04:30N 44°25' E 008°47'3 5.6
2017-Nov-29 04:00N 44°23' E 008°44'2 3.0
2017-Nov-29 03:30N 44°22' E 008°43'4 8.9
2017-Nov-29 03:00N 44°17' E 008°41'4 8.9
2017-Nov-29 02:30N 44°13' E 008°42'816.0
2017-Nov-29 02:00N 44°05' E 008°42'917.2
2017-Nov-29 01:30N 43°57' E 008°38'918.2
2017-Nov-29 01:00N 43°50' E 008°31'918.9
2017-Nov-29 00:30N 43°42' E 008°23'5519.0
2017-Nov-28 21:38N 43°06' E 007°27'519.3
2017-Nov-28 21:22N 43°03' E 007°20'719.3
2017-Nov-28 21:00N 42°60' E 007°12'24618.8
2017-Nov-28 07:57N 41°17' E 002°11'2 1.9
2017-Nov-28 07:05N 41°19' E 002°09'0 0.0
2017-Nov-28 06:52N 41°19' E 002°09'0 0.0
2017-Nov-28 06:30N 41°19' E 002°09'0 0.0
2017-Nov-28 06:00N 41°19' E 002°09'0 0.0
2017-Nov-28 05:15N 41°19' E 002°09'0 0.0
2017-Nov-28 04:30N 41°19' E 002°09'0 0.0
2017-Nov-28 04:00N 41°19' E 002°09'0 0.0
2017-Nov-28 03:30N 41°19' E 002°09'0 0.0
2017-Nov-28 03:00N 41°19' E 002°09'0 0.0
2017-Nov-28 02:30N 41°19' E 002°09'0 0.0
2017-Nov-28 01:59N 41°19' E 002°09'0 0.0
2017-Nov-28 01:30N 41°19' E 002°09'0 0.0
2017-Nov-28 00:17N 41°19' E 002°09'0 0.0
2017-Nov-28 00:00N 41°19' E 002°09'0 0.0
2017-Nov-27 22:55N 41°19' E 002°09'0 0.0
2017-Nov-27 22:28N 41°19' E 002°09'0 0.0
2017-Nov-27 21:42N 41°19' E 002°09'0 0.0
2017-Nov-27 21:16N 41°19' E 002°09'0 0.0
2017-Nov-27 21:00N 41°19' E 002°09'0 0.1
2017-Nov-27 19:51N 41°19' E 002°09'1 1.8
2017-Nov-27 19:14N 41°18' E 002°11'2 7.3
2017-Nov-27 19:00N 41°17' E 002°11'4 0.4
2017-Nov-27 09:58N 41°14' E 002°15'3 7.5
2017-Nov-27 09:30N 41°12' E 002°12'510.4
2017-Nov-27 09:00N 41°08' E 002°07'510.3
2017-Nov-27 08:30N 41°06' E 002°01'510.4
2017-Nov-27 08:00N 41°05' E 001°54'1 2.0
2017-Nov-27 07:30N 41°05' E 001°53'1 1.0
2017-Nov-27 06:52N 41°05' E 001°54'0 1.1
2017-Nov-27 06:30N 41°05' E 001°54'1 1.2
2017-Nov-27 06:00N 41°05' E 001°55'1 1.3
2017-Nov-27 05:30N 41°04' E 001°56'1 1.4
2017-Nov-27 05:00N 41°04' E 001°57'1 1.5
2017-Nov-27 04:30N 41°04' E 001°58'1 1.4
2017-Nov-27 04:00N 41°04' E 001°59'1 1.3
2017-Nov-27 03:30N 41°04' E 001°60'1 1.2
2017-Nov-27 03:00N 41°04' E 002°00'1 1.0
2017-Nov-27 02:26N 41°04' E 002°01'0 0.9
2017-Nov-27 01:59N 41°04' E 002°02'0 0.7
2017-Nov-27 01:30N 41°04' E 002°02'1 0.6
2017-Nov-27 00:41N 41°04' E 002°03'0 0.6
2017-Nov-27 00:30N 41°04' E 002°03'0 0.6
2017-Nov-26 23:55N 41°04' E 002°03'0 0.6
2017-Nov-26 23:20N 41°04' E 002°04'0 0.5
2017-Nov-26 22:50N 41°04' E 002°04'0 0.5
2017-Nov-26 22:30N 41°04' E 002°04'0 0.5
2017-Nov-26 22:00N 41°04' E 002°04'0 0.3
2017-Nov-26 21:30N 41°04' E 002°05'0 0.3
2017-Nov-26 20:59N 41°04' E 002°05'0 0.3
2017-Nov-26 20:30N 41°04' E 002°05'0 0.1
2017-Nov-26 20:00N 41°04' E 002°05'0 0.4
2017-Nov-26 19:30N 41°04' E 002°05'1 2.9
2017-Nov-26 19:00N 41°03' E 002°04'510.6
2017-Nov-26 18:30N 40°59' E 001°58'612.5
2017-Nov-26 18:00N 40°54' E 001°54'  
Track history (hours):
 
Tides and Currents Weather Stations Pressure Air Temp Water Temp Dewpoint Dewpoint Depression Visibility Wind Speed Wind Dir Waves Ship Positions

Seroja Enam

Last reported at 2017-Dec-04 08:20 UTC. Time now 2017-Dec-17 06:27 UTC.
Position N 30°44' E 032°20'.
Warning: this ship's position is 12 days out of date.

Length 316 m; draft 14.3 m.

Type: Cargo ship. MMSI: 351109000.

Date/timePositionNaut miles runAvg speedWind from/ knotsBaromVisibWave heightAir tempDewpointWater temp
2017-Dec-04 08:20N 30°44' E 032°20'310.0
2017-Dec-04 08:00N 30°47' E 032°19'4 8.7
2017-Dec-04 07:30N 30°52' E 032°19'8 8.6
2017-Dec-04 06:37N 30°59' E 032°19'3 9.3
2017-Dec-04 06:17N 31°02' E 032°19'2 9.1
2017-Dec-04 06:00N 31°05' E 032°19'8 0.6
2017-Dec-03 17:39N 31°12' E 032°21'0 0.0
2017-Dec-03 15:42N 31°12' E 032°21'0 0.0
2017-Dec-03 15:09N 31°12' E 032°21'0 0.0
2017-Dec-03 14:54N 31°12' E 032°21'0 0.0
2017-Dec-03 11:24N 31°12' E 032°21'0 0.0
2017-Dec-03 10:57N 31°12' E 032°21'0 0.0
2017-Dec-03 10:27N 31°12' E 032°21'0 0.0
2017-Dec-03 10:00N 31°12' E 032°21'0 0.0
2017-Dec-03 09:30N 31°12' E 032°21'0 0.1
2017-Dec-03 09:00N 31°12' E 032°21'2 4.2
2017-Dec-03 08:30N 31°14' E 032°22'5 9.4
2017-Dec-03 08:00N 31°19' E 032°23'3 6.9
2017-Dec-03 07:30N 31°22' E 032°24'4 8.8
2017-Dec-03 07:00N 31°26' E 032°25'4 3.3
2017-Dec-03 05:55N 31°30' E 032°23'0 0.5
2017-Dec-03 05:16N 31°30' E 032°23'0 0.4
2017-Dec-03 05:00N 31°29' E 032°23'7 6.5
2017-Dec-03 03:59N 31°31' E 032°15'8319.8
2017-Dec-02 23:49N 32°10' E 030°50'721.2
2017-Dec-02 23:30N 32°13' E 030°43'1121.1
2017-Dec-02 23:00N 32°17' E 030°31'1121.1
2017-Dec-02 22:28N 32°21' E 030°19'1020.8
2017-Dec-02 22:00N 32°24' E 030°08'1020.9
2017-Dec-02 21:30N 32°28' E 029°57'10020.7
2017-Dec-02 16:41N 33°05' E 028°07'13121.1
2017-Dec-02 10:29N 33°53' E 025°40'1020.5
2017-Dec-02 09:59N 33°57' E 025°29'1620.2
2017-Dec-02 09:10N 34°03' E 025°11'920.1
2017-Dec-02 08:43N 34°07' E 025°01'420.3
2017-Dec-02 08:30N 34°08' E 024°56'10320.2
2017-Dec-02 03:23N 34°51' E 023°02'819.9
2017-Dec-02 03:00N 34°54' E 022°53'35120.0
2017-Dec-01 09:28N 37°34' E 016°26'1020.3
2017-Dec-01 08:58N 37°38' E 016°14'920.0
2017-Dec-01 08:30N 37°43' E 016°04'1020.0
2017-Dec-01 08:00N 37°47' E 015°53'1020.0
2017-Dec-01 07:30N 37°52' E 015°41'1217.6
2017-Dec-01 06:47N 38°03' E 015°35'516.1
2017-Dec-01 06:29N 38°08' E 015°35'613.4
2017-Dec-01 06:01N 38°14' E 015°36'611.0
2017-Dec-01 05:30N 38°19' E 015°41'3 5.3
2017-Dec-01 05:00N 38°21' E 015°39'3115.6
2017-Dec-01 03:03N 38°48' E 015°21'421.3
2017-Dec-01 02:53N 38°51' E 015°18'3221.3
2017-Dec-01 01:22N 39°13' E 014°48'821.7
2017-Dec-01 01:00N 39°18' E 014°40'35021.0
2017-Nov-30 08:19N 43°30' E 009°17'721.4
2017-Nov-30 08:00N 43°36' E 009°12'1021.0
2017-Nov-30 07:31N 43°45' E 009°06'1020.5
2017-Nov-30 07:01N 43°54' E 008°60'1020.4
2017-Nov-30 06:30N 44°03' E 008°53'1020.5
2017-Nov-30 06:00N 44°12' E 008°47'918.7
2017-Nov-30 05:30N 44°21' E 008°42'510.2
2017-Nov-30 05:01N 44°25' E 008°46'1 1.4
2017-Nov-30 04:28N 44°25' E 008°47'0 0.0
2017-Nov-30 03:58N 44°25' E 008°47'0 0.0
2017-Nov-30 03:28N 44°25' E 008°47'0 0.0
2017-Nov-30 02:58N 44°25' E 008°47'0 0.0
2017-Nov-30 02:28N 44°25' E 008°47'0 0.0
2017-Nov-30 01:58N 44°25' E 008°47'0 0.0
2017-Nov-30 01:28N 44°25' E 008°47'0 0.0
2017-Nov-30 00:58N 44°25' E 008°47'0 0.0
2017-Nov-30 00:28N 44°25' E 008°47'0 0.0
2017-Nov-29 23:58N 44°25' E 008°47'0 0.0
2017-Nov-29 23:28N 44°25' E 008°47'0 0.0
2017-Nov-29 22:58N 44°25' E 008°47'0 0.0
2017-Nov-29 22:28N 44°25' E 008°47'0 0.0
2017-Nov-29 21:58N 44°25' E 008°47'0 0.0
2017-Nov-29 21:28N 44°25' E 008°47'0 0.0
2017-Nov-29 20:58N 44°25' E 008°47'0 0.0
2017-Nov-29 20:28N 44°25' E 008°47'0 0.0
2017-Nov-29 19:55N 44°25' E 008°47'0 0.0
2017-Nov-29 19:28N 44°25' E 008°47'0 0.0
2017-Nov-29 18:55N 44°25' E 008°47'0 0.0
2017-Nov-29 18:25N 44°25' E 008°47'0 0.0
2017-Nov-29 17:58N 44°25' E 008°47'0 0.0
2017-Nov-29 17:28N 44°25' E 008°47'0 0.0
2017-Nov-29 16:58N 44°25' E 008°47'0 0.0
2017-Nov-29 16:28N 44°25' E 008°47'0 0.0
2017-Nov-29 15:58N 44°25' E 008°47'0 0.0
2017-Nov-29 15:28N 44°25' E 008°47'0 0.0
2017-Nov-29 14:58N 44°25' E 008°47'0 0.0
2017-Nov-29 14:28N 44°25' E 008°47'0 0.0
2017-Nov-29 13:58N 44°25' E 008°47'0 0.0
2017-Nov-29 13:28N 44°25' E 008°47'0 0.0
2017-Nov-29 12:58N 44°25' E 008°47'0 0.0
2017-Nov-29 12:28N 44°25' E 008°47'0 0.0
2017-Nov-29 11:58N 44°25' E 008°47'0 0.0
2017-Nov-29 11:28N 44°25' E 008°47'0 0.0
2017-Nov-29 10:58N 44°25' E 008°47'0 0.0
2017-Nov-29 10:28N 44°25' E 008°47'0 0.0
2017-Nov-29 09:58N 44°25' E 008°47'0 0.0
2017-Nov-29 09:28N 44°25' E 008°47'0 0.0
2017-Nov-29 08:58N 44°25' E 008°47'0 0.0
2017-Nov-29 08:28N 44°25' E 008°47'0 0.0
2017-Nov-29 07:58N 44°25' E 008°47'0 0.0
2017-Nov-29 07:28N 44°25' E 008°47'0 0.0
2017-Nov-29 06:58N 44°25' E 008°47'0 0.0
2017-Nov-29 06:28N 44°25' E 008°47'0 0.0
2017-Nov-29 05:58N 44°25' E 008°47'0 0.0
2017-Nov-29 05:28N 44°25' E 008°47'0 0.1
2017-Nov-29 05:00N 44°25' E 008°47'0 0.9
2017-Nov-29 04:30N 44°25' E 008°47'3 5.6
2017-Nov-29 04:00N 44°23' E 008°44'2 3.0
2017-Nov-29 03:30N 44°22' E 008°43'4 8.9
2017-Nov-29 03:00N 44°17' E 008°41'4 8.9
2017-Nov-29 02:30N 44°13' E 008°42'816.0
2017-Nov-29 02:00N 44°05' E 008°42'917.2
2017-Nov-29 01:30N 43°57' E 008°38'918.2
2017-Nov-29 01:00N 43°50' E 008°31'918.9
2017-Nov-29 00:30N 43°42' E 008°23'5519.0
2017-Nov-28 21:38N 43°06' E 007°27'519.3
2017-Nov-28 21:22N 43°03' E 007°20'719.3
2017-Nov-28 21:00N 42°60' E 007°12'24618.8
2017-Nov-28 07:57N 41°17' E 002°11'2 1.9
2017-Nov-28 07:05N 41°19' E 002°09'0 0.0
2017-Nov-28 06:52N 41°19' E 002°09'0 0.0
2017-Nov-28 06:30N 41°19' E 002°09'0 0.0
2017-Nov-28 06:00N 41°19' E 002°09'0 0.0
2017-Nov-28 05:15N 41°19' E 002°09'0 0.0
2017-Nov-28 04:30N 41°19' E 002°09'0 0.0
2017-Nov-28 04:00N 41°19' E 002°09'0 0.0
2017-Nov-28 03:30N 41°19' E 002°09'0 0.0
2017-Nov-28 03:00N 41°19' E 002°09'0 0.0
2017-Nov-28 02:30N 41°19' E 002°09'0 0.0
2017-Nov-28 01:59N 41°19' E 002°09'0 0.0
2017-Nov-28 01:30N 41°19' E 002°09'0 0.0
2017-Nov-28 00:17N 41°19' E 002°09'0 0.0
2017-Nov-28 00:00N 41°19' E 002°09'0 0.0
2017-Nov-27 22:55N 41°19' E 002°09'0 0.0
2017-Nov-27 22:28N 41°19' E 002°09'0 0.0
2017-Nov-27 21:42N 41°19' E 002°09'0 0.0
2017-Nov-27 21:16N 41°19' E 002°09'0 0.0
2017-Nov-27 21:00N 41°19' E 002°09'0 0.1
2017-Nov-27 19:51N 41°19' E 002°09'1 1.8
2017-Nov-27 19:14N 41°18' E 002°11'2 7.3
2017-Nov-27 19:00N 41°17' E 002°11'4 0.4
2017-Nov-27 09:58N 41°14' E 002°15'3 7.5
2017-Nov-27 09:30N 41°12' E 002°12'510.4
2017-Nov-27 09:00N 41°08' E 002°07'510.3
2017-Nov-27 08:30N 41°06' E 002°01'510.4
2017-Nov-27 08:00N 41°05' E 001°54'1 2.0
2017-Nov-27 07:30N 41°05' E 001°53'1 1.0
2017-Nov-27 06:52N 41°05' E 001°54'0 1.1
2017-Nov-27 06:30N 41°05' E 001°54'1 1.2
2017-Nov-27 06:00N 41°05' E 001°55'1 1.3
2017-Nov-27 05:30N 41°04' E 001°56'1 1.4
2017-Nov-27 05:00N 41°04' E 001°57'1 1.5
2017-Nov-27 04:30N 41°04' E 001°58'1 1.4
2017-Nov-27 04:00N 41°04' E 001°59'1 1.3
2017-Nov-27 03:30N 41°04' E 001°60'1 1.2
2017-Nov-27 03:00N 41°04' E 002°00'1 1.0
2017-Nov-27 02:26N 41°04' E 002°01'0 0.9
2017-Nov-27 01:59N 41°04' E 002°02'0 0.7
2017-Nov-27 01:30N 41°04' E 002°02'1 0.6
2017-Nov-27 00:41N 41°04' E 002°03'0 0.6
2017-Nov-27 00:30N 41°04' E 002°03'0 0.6
2017-Nov-26 23:55N 41°04' E 002°03'0 0.6
2017-Nov-26 23:20N 41°04' E 002°04'0 0.5
2017-Nov-26 22:50N 41°04' E 002°04'0 0.5
2017-Nov-26 22:30N 41°04' E 002°04'0 0.5
2017-Nov-26 22:00N 41°04' E 002°04'0 0.3
2017-Nov-26 21:30N 41°04' E 002°05'0 0.3
2017-Nov-26 20:59N 41°04' E 002°05'0 0.3
2017-Nov-26 20:30N 41°04' E 002°05'0 0.1
2017-Nov-26 20:00N 41°04' E 002°05'0 0.4
2017-Nov-26 19:30N 41°04' E 002°05'1 2.9
2017-Nov-26 19:00N 41°03' E 002°04'510.6
2017-Nov-26 18:30N 40°59' E 001°58'612.5
2017-Nov-26 18:00N 40°54' E 001°54'  

Dump ship's entire track history